Metar z połowy godziny Komunikat METAR ze strony awiacja.imgw.pl Metar G00 EPKK METAR EPKK 261830Z 23008KT 9999 BKN050 M01/M03 Q1011 R25/51//95 =